sensor_id;sensor_type;location;lat;lon;timestamp;pressure;altitude;pressure_sealevel;temperature;humidity
38225;BME280;24025;48.138;11.428;2023-05-09T00:01:49;95878.28;;;12.24;70.74
38225;BME280;24025;48.138;11.428;2023-05-09T00:04:21;95866.78;;;12.20;70.71
38225;BME280;24025;48.138;11.428;2023-05-09T00:06:52;95868.69;;;12.19;70.74
38225;BME280;24025;48.138;11.428;2023-05-09T00:09:24;95864.88;;;12.21;70.64
38225;BME280;24025;48.138;11.428;2023-05-09T00:11:55;95866.00;;;12.19;70.39
38225;BME280;24025;48.138;11.428;2023-05-09T00:14:27;95869.38;;;12.16;70.08
38225;BME280;24025;48.138;11.428;2023-05-09T00:16:58;95860.97;;;12.14;70.00
38225;BME280;24025;48.138;11.428;2023-05-09T00:19:30;95864.31;;;12.08;70.13
38225;BME280;24025;48.138;11.428;2023-05-09T00:22:02;95861.63;;;12.04;70.29
38225;BME280;24025;48.138;11.428;2023-05-09T00:24:34;95863.78;;;11.95;70.54
38225;BME280;24025;48.138;11.428;2023-05-09T00:27:05;95849.22;;;11.93;70.91
38225;BME280;24025;48.138;11.428;2023-05-09T00:29:37;95853.78;;;11.88;71.07
38225;BME280;24025;48.138;11.428;2023-05-09T00:32:08;95848.78;;;11.87;70.99
38225;BME280;24025;48.138;11.428;2023-05-09T00:34:40;95855.97;;;11.83;71.28
38225;BME280;24025;48.138;11.428;2023-05-09T00:37:11;95854.03;;;11.80;71.41
38225;BME280;24025;48.138;11.428;2023-05-09T00:39:49;95854.38;;;11.78;71.68
38225;BME280;24025;48.138;11.428;2023-05-09T00:42:21;95851.63;;;11.75;71.40
38225;BME280;24025;48.138;11.428;2023-05-09T00:44:52;95856.56;;;11.73;71.13
38225;BME280;24025;48.138;11.428;2023-05-09T00:47:23;95847.03;;;11.72;71.16
38225;BME280;24025;48.138;11.428;2023-05-09T00:49:56;95840.16;;;11.71;71.70
38225;BME280;24025;48.138;11.428;2023-05-09T00:52:27;95843.56;;;11.68;71.48
38225;BME280;24025;48.138;11.428;2023-05-09T00:54:58;95839.28;;;11.63;71.90
38225;BME280;24025;48.138;11.428;2023-05-09T00:57:30;95843.47;;;11.64;71.38
38225;BME280;24025;48.138;11.428;2023-05-09T01:00:02;95836.97;;;11.61;71.53
38225;BME280;24025;48.138;11.428;2023-05-09T01:02:34;95831.22;;;11.59;71.14
38225;BME280;24025;48.138;11.428;2023-05-09T01:05:06;95834.19;;;11.54;71.40
38225;BME280;24025;48.138;11.428;2023-05-09T01:10:22;95827.28;;;11.50;71.07
38225;BME280;24025;48.138;11.428;2023-05-09T01:13:09;95818.84;;;11.48;71.51
38225;BME280;24025;48.138;11.428;2023-05-09T01:15:51;95816.50;;;11.43;71.72
38225;BME280;24025;48.138;11.428;2023-05-09T01:21:09;95813.66;;;11.32;71.76
38225;BME280;24025;48.138;11.428;2023-05-09T01:23:58;95813.19;;;11.26;72.18
38225;BME280;24025;48.138;11.428;2023-05-09T01:26:44;95813.84;;;11.20;72.34
38225;BME280;24025;48.138;11.428;2023-05-09T01:32:19;95816.78;;;11.11;72.53
38225;BME280;24025;48.138;11.428;2023-05-09T01:34:57;95811.78;;;11.10;72.58
38225;BME280;24025;48.138;11.428;2023-05-09T01:37:33;95809.09;;;11.06;72.66
38225;BME280;24025;48.138;11.428;2023-05-09T01:40:06;95807.88;;;11.03;72.63
38225;BME280;24025;48.138;11.428;2023-05-09T01:42:42;95813.94;;;11.00;72.65
38225;BME280;24025;48.138;11.428;2023-05-09T01:45:14;95805.44;;;10.95;72.72
38225;BME280;24025;48.138;11.428;2023-05-09T01:47:48;95807.34;;;10.94;73.20
38225;BME280;24025;48.138;11.428;2023-05-09T01:50:20;95809.63;;;10.92;73.33
38225;BME280;24025;48.138;11.428;2023-05-09T01:52:54;95796.28;;;10.92;72.91
38225;BME280;24025;48.138;11.428;2023-05-09T01:55:28;95801.19;;;10.90;73.08
38225;BME280;24025;48.138;11.428;2023-05-09T01:58:02;95796.88;;;10.82;73.12
38225;BME280;24025;48.138;11.428;2023-05-09T02:00:35;95796.47;;;10.80;73.15
38225;BME280;24025;48.138;11.428;2023-05-09T02:03:07;95797.16;;;10.77;73.41
38225;BME280;24025;48.138;11.428;2023-05-09T02:05:38;95787.97;;;10.74;73.71
38225;BME280;24025;48.138;11.428;2023-05-09T02:08:10;95778.81;;;10.72;73.54
38225;BME280;24025;48.138;11.428;2023-05-09T02:10:43;95789.47;;;10.72;73.57
38225;BME280;24025;48.138;11.428;2023-05-09T02:13:16;95795.94;;;10.71;73.44
38225;BME280;24025;48.138;11.428;2023-05-09T02:15:47;95789.06;;;10.70;73.85
38225;BME280;24025;48.138;11.428;2023-05-09T02:18:19;95785.28;;;10.71;73.78
38225;BME280;24025;48.138;11.428;2023-05-09T02:20:51;95783.72;;;10.70;73.92
38225;BME280;24025;48.138;11.428;2023-05-09T02:23:23;95778.72;;;10.68;74.25
38225;BME280;24025;48.138;11.428;2023-05-09T02:25:55;95781.00;;;10.66;74.26
38225;BME280;24025;48.138;11.428;2023-05-09T02:28:26;95779.84;;;10.67;73.98
38225;BME280;24025;48.138;11.428;2023-05-09T02:30:58;95777.63;;;10.69;73.74
38225;BME280;24025;48.138;11.428;2023-05-09T02:33:30;95777.56;;;10.66;73.99
38225;BME280;24025;48.138;11.428;2023-05-09T02:36:02;95772.59;;;10.64;73.79
38225;BME280;24025;48.138;11.428;2023-05-09T02:38:35;95782.47;;;10.64;74.05
38225;BME280;24025;48.138;11.428;2023-05-09T02:41:06;95771.69;;;10.57;73.77
38225;BME280;24025;48.138;11.428;2023-05-09T02:43:37;95768.63;;;10.55;74.13
38225;BME280;24025;48.138;11.428;2023-05-09T02:46:09;95772.34;;;10.50;74.30
38225;BME280;24025;48.138;11.428;2023-05-09T02:48:41;95771.91;;;10.48;73.97
38225;BME280;24025;48.138;11.428;2023-05-09T02:51:12;95772.66;;;10.45;74.28
38225;BME280;24025;48.138;11.428;2023-05-09T02:53:44;95765.81;;;10.47;73.90
38225;BME280;24025;48.138;11.428;2023-05-09T02:56:15;95761.63;;;10.46;73.98
38225;BME280;24025;48.138;11.428;2023-05-09T02:58:46;95764.22;;;10.43;74.43
38225;BME280;24025;48.138;11.428;2023-05-09T03:01:21;95765.78;;;10.44;73.95
38225;BME280;24025;48.138;11.428;2023-05-09T03:03:53;95766.53;;;10.44;73.74
38225;BME280;24025;48.138;11.428;2023-05-09T03:06:24;95764.94;;;10.40;73.85
38225;BME280;24025;48.138;11.428;2023-05-09T03:08:56;95756.03;;;10.32;73.87
38225;BME280;24025;48.138;11.428;2023-05-09T03:11:27;95767.00;;;10.27;74.40
38225;BME280;24025;48.138;11.428;2023-05-09T03:13:59;95763.56;;;10.27;74.38
38225;BME280;24025;48.138;11.428;2023-05-09T03:16:31;95758.22;;;10.27;74.30
38225;BME280;24025;48.138;11.428;2023-05-09T03:19:02;95755.06;;;10.21;74.22
38225;BME280;24025;48.138;11.428;2023-05-09T03:21:34;95755.41;;;10.19;74.20
38225;BME280;24025;48.138;11.428;2023-05-09T03:24:06;95761.50;;;10.20;74.05
38225;BME280;24025;48.138;11.428;2023-05-09T03:26:38;95750.84;;;10.20;74.31
38225;BME280;24025;48.138;11.428;2023-05-09T03:29:09;95759.59;;;10.20;74.08
38225;BME280;24025;48.138;11.428;2023-05-09T03:31:40;95761.09;;;10.18;74.60
38225;BME280;24025;48.138;11.428;2023-05-09T03:34:12;95757.31;;;10.19;74.41
38225;BME280;24025;48.138;11.428;2023-05-09T03:36:45;95757.66;;;10.17;74.22
38225;BME280;24025;48.138;11.428;2023-05-09T03:39:16;95753.09;;;10.18;73.27
38225;BME280;24025;48.138;11.428;2023-05-09T03:41:48;95758.34;;;10.14;73.60
38225;BME280;24025;48.138;11.428;2023-05-09T03:44:19;95748.41;;;10.11;73.81
38225;BME280;24025;48.138;11.428;2023-05-09T03:46:51;95754.38;;;10.05;74.67
38225;BME280;24025;48.138;11.428;2023-05-09T03:49:22;95747.91;;;10.06;74.49
38225;BME280;24025;48.138;11.428;2023-05-09T03:51:54;95755.56;;;10.07;74.41
38225;BME280;24025;48.138;11.428;2023-05-09T03:54:26;95748.63;;;10.03;74.12
38225;BME280;24025;48.138;11.428;2023-05-09T03:56:57;95757.25;;;9.96;74.58
38225;BME280;24025;48.138;11.428;2023-05-09T03:59:29;95754.03;;;9.87;74.63
38225;BME280;24025;48.138;11.428;2023-05-09T04:02:01;95757.75;;;9.82;74.63
38225;BME280;24025;48.138;11.428;2023-05-09T04:04:33;95757.63;;;9.75;74.94
38225;BME280;24025;48.138;11.428;2023-05-09T04:07:04;95766.53;;;9.63;75.11
38225;BME280;24025;48.138;11.428;2023-05-09T04:09:36;95758.25;;;9.69;75.67
38225;BME280;24025;48.138;11.428;2023-05-09T04:12:07;95762.84;;;9.72;75.81
38225;BME280;24025;48.138;11.428;2023-05-09T04:14:39;95770.56;;;9.77;75.43
38225;BME280;24025;48.138;11.428;2023-05-09T04:17:10;95769.53;;;9.81;75.18
38225;BME280;24025;48.138;11.428;2023-05-09T04:19:42;95773.03;;;9.85;75.27
38225;BME280;24025;48.138;11.428;2023-05-09T04:22:13;95773.53;;;9.91;75.38
38225;BME280;24025;48.138;11.428;2023-05-09T04:24:45;95774.34;;;9.95;75.51
38225;BME280;24025;48.138;11.428;2023-05-09T04:27:16;95763.84;;;10.02;74.90
38225;BME280;24025;48.138;11.428;2023-05-09T04:29:47;95760.53;;;10.09;75.14
38225;BME280;24025;48.138;11.428;2023-05-09T04:32:19;95768.31;;;10.17;74.77
38225;BME280;24025;48.138;11.428;2023-05-09T04:34:52;95765.38;;;10.23;74.72
38225;BME280;24025;48.138;11.428;2023-05-09T04:37:24;95761.59;;;10.24;74.33
38225;BME280;24025;48.138;11.428;2023-05-09T04:39:56;95756.25;;;10.24;74.62
38225;BME280;24025;48.138;11.428;2023-05-09T04:42:27;95753.72;;;10.31;75.12
38225;BME280;24025;48.138;11.428;2023-05-09T04:44:59;95747.75;;;10.37;75.48
38225;BME280;24025;48.138;11.428;2023-05-09T04:47:30;95747.53;;;10.46;74.86
38225;BME280;24025;48.138;11.428;2023-05-09T04:50:02;95744.66;;;10.58;74.42
38225;BME280;24025;48.138;11.428;2023-05-09T04:52:34;95744.41;;;10.67;74.87
38225;BME280;24025;48.138;11.428;2023-05-09T04:55:06;95740.75;;;10.75;74.85
38225;BME280;24025;48.138;11.428;2023-05-09T04:57:38;95748.50;;;10.84;74.81
38225;BME280;24025;48.138;11.428;2023-05-09T05:00:10;95745.59;;;10.92;74.19
38225;BME280;24025;48.138;11.428;2023-05-09T05:02:42;95744.94;;;10.99;74.57
38225;BME280;24025;48.138;11.428;2023-05-09T05:05:13;95743.06;;;11.03;74.22
38225;BME280;24025;48.138;11.428;2023-05-09T05:07:45;95746.59;;;11.11;74.05
38225;BME280;24025;48.138;11.428;2023-05-09T05:10:16;95747.97;;;11.24;73.46
38225;BME280;24025;48.138;11.428;2023-05-09T05:12:48;95750.38;;;11.32;72.86
38225;BME280;24025;48.138;11.428;2023-05-09T05:15:19;95741.38;;;11.48;72.40
38225;BME280;24025;48.138;11.428;2023-05-09T05:17:51;95748.38;;;11.56;72.24
38225;BME280;24025;48.138;11.428;2023-05-09T05:20:22;95737.09;;;11.70;71.01
38225;BME280;24025;48.138;11.428;2023-05-09T05:22:54;95740.63;;;11.77;70.83
38225;BME280;24025;48.138;11.428;2023-05-09T05:25:26;95728.56;;;11.87;69.99
38225;BME280;24025;48.138;11.428;2023-05-09T05:27:57;95730.19;;;11.99;69.27
38225;BME280;24025;48.138;11.428;2023-05-09T05:30:28;95731.78;;;12.03;68.66
38225;BME280;24025;48.138;11.428;2023-05-09T05:33:04;95726.91;;;12.12;68.27
38225;BME280;24025;48.138;11.428;2023-05-09T05:35:35;95728.53;;;12.24;67.60
38225;BME280;24025;48.138;11.428;2023-05-09T05:38:07;95726.00;;;12.38;67.00
38225;BME280;24025;48.138;11.428;2023-05-09T05:40:39;95734.16;;;12.53;67.22
38225;BME280;24025;48.138;11.428;2023-05-09T05:43:10;95725.75;;;12.54;65.62
38225;BME280;24025;48.138;11.428;2023-05-09T05:45:42;95723.25;;;12.75;65.30
38225;BME280;24025;48.138;11.428;2023-05-09T05:48:13;95723.41;;;12.93;65.69
38225;BME280;24025;48.138;11.428;2023-05-09T05:50:45;95720.16;;;13.21;64.43
38225;BME280;24025;48.138;11.428;2023-05-09T05:53:16;95717.66;;;13.53;62.35
38225;BME280;24025;48.138;11.428;2023-05-09T05:55:48;95710.03;;;13.63;62.77
38225;BME280;24025;48.138;11.428;2023-05-09T05:58:19;95707.72;;;13.57;62.22
38225;BME280;24025;48.138;11.428;2023-05-09T06:00:53;95705.03;;;13.54;62.44
38225;BME280;24025;48.138;11.428;2023-05-09T06:03:25;95700.81;;;13.60;62.72
38225;BME280;24025;48.138;11.428;2023-05-09T06:05:57;95711.16;;;13.58;61.92
38225;BME280;24025;48.138;11.428;2023-05-09T06:08:29;95706.59;;;13.66;62.41
38225;BME280;24025;48.138;11.428;2023-05-09T06:11:01;95700.44;;;13.54;62.55
38225;BME280;24025;48.138;11.428;2023-05-09T06:13:32;95698.16;;;13.64;61.77
38225;BME280;24025;48.138;11.428;2023-05-09T06:16:04;95692.44;;;13.69;62.28
38225;BME280;24025;48.138;11.428;2023-05-09T06:18:50;95700.47;;;13.69;62.04
38225;BME280;24025;48.138;11.428;2023-05-09T06:21:25;95703.22;;;13.83;62.40
38225;BME280;24025;48.138;11.428;2023-05-09T06:23:57;95696.34;;;13.89;62.50
38225;BME280;24025;48.138;11.428;2023-05-09T06:26:42;95705.53;;;13.92;60.30
38225;BME280;24025;48.138;11.428;2023-05-09T06:29:13;95703.59;;;13.81;61.31
38225;BME280;24025;48.138;11.428;2023-05-09T06:31:45;95706.69;;;13.87;61.96
38225;BME280;24025;48.138;11.428;2023-05-09T06:34:17;95705.53;;;13.92;62.46
38225;BME280;24025;48.138;11.428;2023-05-09T06:36:48;95695.97;;;13.91;62.01
38225;BME280;24025;48.138;11.428;2023-05-09T06:39:20;95687.56;;;13.99;61.51
38225;BME280;24025;48.138;11.428;2023-05-09T06:41:51;95689.81;;;13.94;61.83
38225;BME280;24025;48.138;11.428;2023-05-09T06:44:22;95677.97;;;13.91;62.37
38225;BME280;24025;48.138;11.428;2023-05-09T06:46:54;95683.69;;;13.86;62.20
38225;BME280;24025;48.138;11.428;2023-05-09T06:49:25;95676.03;;;13.92;63.21
38225;BME280;24025;48.138;11.428;2023-05-09T06:51:57;95680.63;;;13.95;63.43
38225;BME280;24025;48.138;11.428;2023-05-09T06:54:28;95679.13;;;13.97;61.88
38225;BME280;24025;48.138;11.428;2023-05-09T06:57:00;95677.97;;;13.91;62.02
38225;BME280;24025;48.138;11.428;2023-05-09T06:59:32;95673.34;;;13.92;62.66
38225;BME280;24025;48.138;11.428;2023-05-09T07:02:03;95669.16;;;13.91;63.27
38225;BME280;24025;48.138;11.428;2023-05-09T07:04:35;95672.22;;;13.96;63.97
38225;BME280;24025;48.138;11.428;2023-05-09T07:07:06;95663.41;;;14.03;63.11
38225;BME280;24025;48.138;11.428;2023-05-09T07:09:37;95666.13;;;14.10;62.66
38225;BME280;24025;48.138;11.428;2023-05-09T07:12:09;95666.13;;;14.13;62.78
38225;BME280;24025;48.138;11.428;2023-05-09T07:14:40;95661.91;;;14.27;63.02
38225;BME280;24025;48.138;11.428;2023-05-09T07:17:12;95652.72;;;14.38;62.93
38225;BME280;24025;48.138;11.428;2023-05-09T07:19:54;95657.34;;;14.56;62.79
38225;BME280;24025;48.138;11.428;2023-05-09T07:22:26;95653.88;;;14.73;62.16
38225;BME280;24025;48.138;11.428;2023-05-09T07:25:00;95650.41;;;14.83;62.64
38225;BME280;24025;48.138;11.428;2023-05-09T07:27:32;95649.25;;;14.95;62.38
38225;BME280;24025;48.138;11.428;2023-05-09T07:30:03;95654.22;;;15.07;61.15
38225;BME280;24025;48.138;11.428;2023-05-09T07:32:35;95647.72;;;14.97;60.29
38225;BME280;24025;48.138;11.428;2023-05-09T07:35:07;95645.41;;;14.99;59.97
38225;BME280;24025;48.138;11.428;2023-05-09T07:37:38;95644.59;;;15.20;61.40
38225;BME280;24025;48.138;11.428;2023-05-09T07:40:10;95637.63;;;15.37;60.47
38225;BME280;24025;48.138;11.428;2023-05-09T07:42:42;95634.19;;;15.33;60.43
38225;BME280;24025;48.138;11.428;2023-05-09T07:45:19;95632.22;;;15.48;60.80
38225;BME280;24025;48.138;11.428;2023-05-09T07:47:54;95624.88;;;15.55;60.79
38225;BME280;24025;48.138;11.428;2023-05-09T07:50:25;95620.25;;;15.63;61.96
38225;BME280;24025;48.138;11.428;2023-05-09T07:52:56;95630.59;;;15.68;60.84
38225;BME280;24025;48.138;11.428;2023-05-09T07:55:28;95625.22;;;15.68;61.01
38225;BME280;24025;48.138;11.428;2023-05-09T07:57:59;95619.00;;;15.78;61.87
38225;BME280;24025;48.138;11.428;2023-05-09T08:00:31;95616.34;;;15.75;62.04
38225;BME280;24025;48.138;11.428;2023-05-09T08:03:02;95606.25;;;15.90;60.98
38225;BME280;24025;48.138;11.428;2023-05-09T08:05:34;95615.09;;;15.94;60.27
38225;BME280;24025;48.138;11.428;2023-05-09T08:08:05;95607.41;;;15.89;62.18
38225;BME280;24025;48.138;11.428;2023-05-09T08:10:38;95614.78;;;15.77;62.51
38225;BME280;24025;48.138;11.428;2023-05-09T08:13:09;95602.91;;;15.75;61.64
38225;BME280;24025;48.138;11.428;2023-05-09T08:15:40;95595.94;;;15.84;62.27
38225;BME280;24025;48.138;11.428;2023-05-09T08:18:12;95601.78;;;15.69;62.84
38225;BME280;24025;48.138;11.428;2023-05-09T08:20:43;95595.63;;;15.72;62.99
38225;BME280;24025;48.138;11.428;2023-05-09T08:23:15;95597.28;;;15.48;61.56
38225;BME280;24025;48.138;11.428;2023-05-09T08:25:46;95594.50;;;15.66;61.82
38225;BME280;24025;48.138;11.428;2023-05-09T08:28:17;95586.34;;;15.80;62.99
38225;BME280;24025;48.138;11.428;2023-05-09T08:30:49;95589.47;;;15.75;60.76
38225;BME280;24025;48.138;11.428;2023-05-09T08:33:21;95582.88;;;15.83;61.42
38225;BME280;24025;48.138;11.428;2023-05-09T08:35:53;95574.34;;;15.95;61.71
38225;BME280;24025;48.138;11.428;2023-05-09T08:38:24;95567.28;;;16.12;61.50
38225;BME280;24025;48.138;11.428;2023-05-09T08:40:59;95557.34;;;16.05;61.18
38225;BME280;24025;48.138;11.428;2023-05-09T08:43:32;95565.34;;;16.16;61.86
38225;BME280;24025;48.138;11.428;2023-05-09T08:46:07;95564.06;;;15.83;62.09
38225;BME280;24025;48.138;11.428;2023-05-09T08:48:39;95552.78;;;16.02;61.48
38225;BME280;24025;48.138;11.428;2023-05-09T08:51:12;95558.72;;;15.76;61.57
38225;BME280;24025;48.138;11.428;2023-05-09T08:53:44;95541.66;;;16.00;62.34
38225;BME280;24025;48.138;11.428;2023-05-09T08:56:15;95545.31;;;16.21;62.83
38225;BME280;24025;48.138;11.428;2023-05-09T08:58:47;95546.31;;;16.37;61.81
38225;BME280;24025;48.138;11.428;2023-05-09T09:01:18;95539.59;;;16.56;61.94
38225;BME280;24025;48.138;11.428;2023-05-09T09:03:50;95537.09;;;16.76;61.43
38225;BME280;24025;48.138;11.428;2023-05-09T09:06:22;95536.34;;;16.76;59.63
38225;BME280;24025;48.138;11.428;2023-05-09T09:08:53;95533.81;;;16.95;61.26
38225;BME280;24025;48.138;11.428;2023-05-09T09:11:29;95527.16;;;17.04;60.78
38225;BME280;24025;48.138;11.428;2023-05-09T09:14:03;95522.31;;;17.22;60.61
38225;BME280;24025;48.138;11.428;2023-05-09T09:16:36;95521.03;;;17.34;58.95
38225;BME280;24025;48.138;11.428;2023-05-09T09:19:09;95520.06;;;17.47;58.16
38225;BME280;24025;48.138;11.428;2023-05-09T09:21:42;95515.72;;;17.53;58.78
38225;BME280;24025;48.138;11.428;2023-05-09T09:24:16;95513.47;;;17.79;58.81
38225;BME280;24025;48.138;11.428;2023-05-09T09:26:51;95513.22;;;17.93;56.58
38225;BME280;24025;48.138;11.428;2023-05-09T09:29:22;95508.25;;;17.92;56.80
38225;BME280;24025;48.138;11.428;2023-05-09T09:31:54;95497.91;;;18.10;58.23
38225;BME280;24025;48.138;11.428;2023-05-09T09:34:26;95492.94;;;18.08;56.27
38225;BME280;24025;48.138;11.428;2023-05-09T09:36:57;95488.09;;;18.20;56.08
38225;BME280;24025;48.138;11.428;2023-05-09T09:39:29;95483.53;;;18.40;56.25
38225;BME280;24025;48.138;11.428;2023-05-09T09:42:08;95491.28;;;18.38;53.82
38225;BME280;24025;48.138;11.428;2023-05-09T09:44:40;95484.50;;;18.50;54.54
38225;BME280;24025;48.138;11.428;2023-05-09T09:47:11;95483.69;;;18.73;56.13
38225;BME280;24025;48.138;11.428;2023-05-09T09:49:44;95475.88;;;18.78;54.79
38225;BME280;24025;48.138;11.428;2023-05-09T09:52:22;95465.59;;;18.89;54.26
38225;BME280;24025;48.138;11.428;2023-05-09T09:54:55;95460.94;;;18.74;53.30
38225;BME280;24025;48.138;11.428;2023-05-09T09:57:36;95463.31;;;18.88;56.55
38225;BME280;24025;48.138;11.428;2023-05-09T10:00:08;95456.53;;;19.00;55.63
38225;BME280;24025;48.138;11.428;2023-05-09T10:02:53;95463.16;;;19.15;54.79
38225;BME280;24025;48.138;11.428;2023-05-09T10:05:25;95445.50;;;18.90;52.88
38225;BME280;24025;48.138;11.428;2023-05-09T10:08:03;95443.41;;;19.18;54.66
38225;BME280;24025;48.138;11.428;2023-05-09T10:10:35;95440.63;;;19.38;54.17
38225;BME280;24025;48.138;11.428;2023-05-09T10:13:09;95435.28;;;19.34;51.08
38225;BME280;24025;48.138;11.428;2023-05-09T10:15:42;95429.28;;;19.63;53.75
38225;BME280;24025;48.138;11.428;2023-05-09T10:18:25;95429.00;;;19.73;51.96
38225;BME280;24025;48.138;11.428;2023-05-09T10:20:58;95424.09;;;19.85;50.99
38225;BME280;24025;48.138;11.428;2023-05-09T10:23:36;95415.00;;;20.07;52.02
38225;BME280;24025;48.138;11.428;2023-05-09T10:28:41;95412.25;;;20.24;49.34
38225;BME280;24025;48.138;11.428;2023-05-09T10:31:18;95408.41;;;20.37;50.81
38225;BME280;24025;48.138;11.428;2023-05-09T10:33:52;95403.28;;;20.27;49.80
38225;BME280;24025;48.138;11.428;2023-05-09T10:36:24;95403.47;;;20.49;49.13
38225;BME280;24025;48.138;11.428;2023-05-09T10:38:56;95395.06;;;20.59;49.70
38225;BME280;24025;48.138;11.428;2023-05-09T10:41:27;95387.34;;;20.58;48.07
38225;BME280;24025;48.138;11.428;2023-05-09T10:43:59;95379.25;;;20.83;49.38
38225;BME280;24025;48.138;11.428;2023-05-09T10:46:31;95379.81;;;20.91;48.23
38225;BME280;24025;48.138;11.428;2023-05-09T10:49:02;95376.25;;;21.07;48.38
38225;BME280;24025;48.138;11.428;2023-05-09T10:51:34;95375.91;;;21.17;49.49
38225;BME280;24025;48.138;11.428;2023-05-09T10:54:14;95368.09;;;21.19;47.64
38225;BME280;24025;48.138;11.428;2023-05-09T10:56:55;95367.78;;;21.43;49.36
38225;BME280;24025;48.138;11.428;2023-05-09T11:02:12;95349.56;;;21.05;48.75
38225;BME280;24025;48.138;11.428;2023-05-09T11:04:44;95341.41;;;20.92;45.87
38225;BME280;24025;48.138;11.428;2023-05-09T11:07:25;95347.81;;;21.37;48.92
38225;BME280;24025;48.138;11.428;2023-05-09T11:12:51;95335.16;;;21.68;47.96
38225;BME280;24025;48.138;11.428;2023-05-09T11:15:25;95320.06;;;21.67;46.64
38225;BME280;24025;48.138;11.428;2023-05-09T11:18:03;95313.56;;;21.30;46.31
38225;BME280;24025;48.138;11.428;2023-05-09T11:20:41;95313.56;;;21.65;47.40
38225;BME280;24025;48.138;11.428;2023-05-09T11:23:17;95306.34;;;21.84;45.40
38225;BME280;24025;48.138;11.428;2023-05-09T11:25:49;95308.38;;;22.14;46.94
38225;BME280;24025;48.138;11.428;2023-05-09T11:31:20;95307.06;;;22.50;44.91
38225;BME280;24025;48.138;11.428;2023-05-09T11:33:50;95300.97;;;22.68;45.63
38225;BME280;24025;48.138;11.428;2023-05-09T11:36:29;95288.06;;;22.50;44.56
38225;BME280;24025;48.138;11.428;2023-05-09T11:39:06;95286.13;;;22.59;46.40
38225;BME280;24025;48.138;11.428;2023-05-09T11:41:38;95283.50;;;22.78;45.59
38225;BME280;24025;48.138;11.428;2023-05-09T11:46:45;95283.66;;;23.24;43.51
38225;BME280;24025;48.138;11.428;2023-05-09T11:49:17;95269.00;;;23.49;43.66
38225;BME280;24025;48.138;11.428;2023-05-09T11:51:49;95279.59;;;23.37;42.44
38225;BME280;24025;48.138;11.428;2023-05-09T11:54:22;95270.88;;;23.61;43.71
38225;BME280;24025;48.138;11.428;2023-05-09T11:56:53;95267.25;;;23.73;43.65
38225;BME280;24025;48.138;11.428;2023-05-09T11:59:25;95264.81;;;23.84;42.31
38225;BME280;24025;48.138;11.428;2023-05-09T12:02:01;95256.06;;;23.71;41.46
38225;BME280;24025;48.138;11.428;2023-05-09T12:04:33;95258.47;;;23.96;42.93
38225;BME280;24025;48.138;11.428;2023-05-09T12:07:04;95247.38;;;24.09;41.26
38225;BME280;24025;48.138;11.428;2023-05-09T12:09:36;95251.94;;;24.12;43.25
38225;BME280;24025;48.138;11.428;2023-05-09T12:12:12;95239.78;;;24.22;42.64
38225;BME280;24025;48.138;11.428;2023-05-09T12:14:44;95237.06;;;24.22;41.03
38225;BME280;24025;48.138;11.428;2023-05-09T12:17:16;95231.56;;;24.50;41.49
38225;BME280;24025;48.138;11.428;2023-05-09T12:19:47;95226.81;;;24.60;40.61
38225;BME280;24025;48.138;11.428;2023-05-09T12:22:20;95225.66;;;24.42;41.56
38225;BME280;24025;48.138;11.428;2023-05-09T12:24:52;95225.00;;;24.56;41.80
38225;BME280;24025;48.138;11.428;2023-05-09T12:27:24;95219.78;;;24.35;41.20
38225;BME280;24025;48.138;11.428;2023-05-09T12:30:01;95207.13;;;24.13;41.08
38225;BME280;24025;48.138;11.428;2023-05-09T12:32:34;95211.13;;;24.36;40.70
38225;BME280;24025;48.138;11.428;2023-05-09T12:35:07;95206.97;;;24.59;41.19
38225;BME280;24025;48.138;11.428;2023-05-09T12:37:39;95196.59;;;24.72;40.88
38225;BME280;24025;48.138;11.428;2023-05-09T12:40:24;95192.25;;;24.90;39.23
38225;BME280;24025;48.138;11.428;2023-05-09T12:42:56;95191.16;;;24.96;40.66
38225;BME280;24025;48.138;11.428;2023-05-09T12:45:31;95185.13;;;24.92;40.40
38225;BME280;24025;48.138;11.428;2023-05-09T12:48:03;95193.38;;;25.07;40.07
38225;BME280;24025;48.138;11.428;2023-05-09T12:50:36;95182.19;;;25.05;39.01
38225;BME280;24025;48.138;11.428;2023-05-09T12:53:07;95181.88;;;25.27;39.04
38225;BME280;24025;48.138;11.428;2023-05-09T12:55:39;95179.84;;;25.36;39.20
38225;BME280;24025;48.138;11.428;2023-05-09T12:58:14;95165.44;;;25.51;39.28
38225;BME280;24025;48.138;11.428;2023-05-09T13:00:45;95167.59;;;25.61;37.61
38225;BME280;24025;48.138;11.428;2023-05-09T13:03:26;95164.25;;;25.66;39.21
38225;BME280;24025;48.138;11.428;2023-05-09T13:06:00;95168.59;;;25.73;38.74
38225;BME280;24025;48.138;11.428;2023-05-09T13:08:31;95164.03;;;25.70;37.75
38225;BME280;24025;48.138;11.428;2023-05-09T13:11:03;95149.56;;;26.08;37.94
38225;BME280;24025;48.138;11.428;2023-05-09T13:13:47;95147.38;;;26.12;37.69
38225;BME280;24025;48.138;11.428;2023-05-09T13:16:18;95146.56;;;26.06;37.42
38225;BME280;24025;48.138;11.428;2023-05-09T13:18:49;95137.41;;;26.09;37.77
38225;BME280;24025;48.138;11.428;2023-05-09T13:21:21;95136.66;;;25.94;37.74
38225;BME280;24025;48.138;11.428;2023-05-09T13:23:52;95141.56;;;25.75;38.03
38225;BME280;24025;48.138;11.428;2023-05-09T13:26:24;95128.03;;;25.42;38.28
38225;BME280;24025;48.138;11.428;2023-05-09T13:28:57;95133.22;;;25.40;38.56
38225;BME280;24025;48.138;11.428;2023-05-09T13:31:29;95130.78;;;25.42;38.38
38225;BME280;24025;48.138;11.428;2023-05-09T13:34:00;95123.63;;;25.59;38.37
38225;BME280;24025;48.138;11.428;2023-05-09T13:36:31;95115.09;;;25.81;37.90
38225;BME280;24025;48.138;11.428;2023-05-09T13:39:03;95107.38;;;25.80;39.73
38225;BME280;24025;48.138;11.428;2023-05-09T13:41:34;95102.63;;;26.10;37.70